Time;durP1;ratioP1;P1;durP2;ratioP2;P2;SDS_P1;SDS_P2;PMS_P1;PMS_P2;Temp;Humidity;BMP_temperature;BMP_pressure;BME280_temperature;BME280_humidity;BME280_pressure;Samples;Min_cycle;Max_cycle;Signal;HPM_P1;HPM_P2
2023/10/12 00:00:41;;;;;;;;;;;;;;;;;;6144115;23;19927;-86
2023/10/12 00:03:08;;;;;;;;;;;;;;;;;;6147587;23;19930;-86
2023/10/12 00:05:34;;;;;;;;;;;;;;;;;;6147232;23;19972;-86
2023/10/12 00:08:10;;;;;;;;;;;;;;;;;;6148314;23;19927;-86
2023/10/12 00:10:46;;;;;;;;;;;;;;;;;;6148116;23;19917;-86
2023/10/12 00:13:13;;;;;;;;;;;;;;;;;;6145219;23;19940;-86
2023/10/12 00:15:56;;;;;;;;;;;;;;;;;;6171187;23;19920;-86
2023/10/12 00:18:23;;;;;;;;;;;;;;;;;;6148502;23;19920;-86
2023/10/12 00:20:54;;;;;;;;;;;;;;;;;;6146762;23;19970;-86
2023/10/12 00:23:33;;;;;;;;;;;;;;;;;;6150169;23;19927;-86
2023/10/12 00:26:00;;;;;;;;;;;;;;;;;;6145173;23;19923;-86
2023/10/12 00:28:37;;;;;;;;;;;;;;;;;;6151344;23;19967;-86
2023/10/12 00:31:17;;;;;;;;;;;;;;;;;;6150669;23;19927;-86
2023/10/12 00:33:50;;;;;;;;;;;;;;;;;;6145316;23;19974;-86
2023/10/12 00:36:21;;;;;;;;;;;;;;;;;;6149751;23;20305;-86
2023/10/12 00:39:11;;;;;;;;;;;;;;;;;;6148617;23;19920;-86
2023/10/12 00:41:44;;;;;;;;;;;;;;;;;;6171357;23;19930;-86
2023/10/12 00:44:12;;;;;;;;;;;;;;;;;;6148121;23;19920;-86
2023/10/12 00:46:48;;;;;;;;;;;;;;;;;;6172621;23;19924;-86
2023/10/12 00:49:20;;;;;;;;;;;;;;;;;;6149506;23;20369;-85
2023/10/12 00:52:08;;;;;;;;;;;;;;;;;;6143353;23;19926;-86
2023/10/12 00:54:41;;;;;;;;;;;;;;;;;;6146735;23;19955;-86
2023/10/12 00:57:20;;;;;;;;;;;;;;;;;;6174011;23;20010;-86
2023/10/12 00:59:50;;;;;;;;;;;;;;;;;;6147760;23;19920;-86
2023/10/12 01:02:21;;;;;;;;;;;;;;;;;;6147785;23;19926;-86
2023/10/12 01:04:57;;;;;;;;;;;;;;;;;;6147297;23;19916;-86
2023/10/12 01:07:34;;;;;;;;;;;;;;;;;;6174766;23;20020;-86
2023/10/12 01:10:06;;;;;;;;;;;;;;;;;;6147621;23;19920;-86
2023/10/12 01:12:45;;;;;;;;;;;;;;;;;;6145576;23;19920;-86
2023/10/12 01:15:11;;;;;;;;;;;;;;;;;;6147678;23;19928;-86
2023/10/12 01:17:41;;;;;;;;;;;;;;;;;;6145468;23;19933;-86
2023/10/12 01:20:26;;;;;;;;;;;;;;;;;;6148253;23;19920;-86
2023/10/12 01:23:05;;;;;;;;;;;;;;;;;;6172138;23;19920;-86
2023/10/12 01:25:40;;;;;;;;;;;;;;;;;;6148271;23;19921;-86
2023/10/12 01:28:16;;;;;;;;;;;;;;;;;;6148539;23;20313;-86
2023/10/12 01:30:44;;;;;;;;;;;;;;;;;;6174040;23;19927;-86
2023/10/12 01:33:14;;;;;;;;;;;;;;;;;;6175470;23;19924;-86
2023/10/12 01:35:48;;;;;;;;;;;;;;;;;;6173274;23;19930;-86
2023/10/12 01:38:16;;;;;;;;;;;;;;;;;;6171912;23;20349;-86
2023/10/12 01:43:17;;;;;;;;;;;;;;;;;;6173021;23;19926;-86
2023/10/12 01:45:59;;;;;;;;;;;;;;;;;;6170817;23;19924;-86
2023/10/12 01:48:37;;;;;;;;;;;;;;;;;;6144802;23;19920;-86
2023/10/12 01:51:14;;;;;;;;;;;;;;;;;;6172853;23;19920;-86
2023/10/12 01:53:51;;;;;;;;;;;;;;;;;;6167882;23;19931;-86
2023/10/12 01:56:18;;;;;;;;;;;;;;;;;;6144590;23;19943;-86
2023/10/12 01:59:08;;;;;;;;;;;;;;;;;;6148456;23;19926;-86
2023/10/12 02:01:42;;;;;;;;;;;;;;;;;;6171462;23;19920;-86
2023/10/12 02:04:10;;;;;;;;;;;;;;;;;;6145345;23;19942;-86
2023/10/12 02:06:39;;;;;;;;;;;;;;;;;;6147054;23;20337;-86
2023/10/12 02:09:10;;;;;;;;;;;;;;;;;;6148487;23;19943;-86
2023/10/12 02:11:46;;;;;;;;;;;;;;;;;;6145157;23;19920;-86
2023/10/12 02:14:15;;;;;;;;;;;;;;;;;;6144899;23;20003;-86
2023/10/12 02:16:53;;;;;;;;;;;;;;;;;;6143048;23;19927;-86
2023/10/12 02:22:36;;;;;;;;;;;;;;;;;;6083226;23;19999;-86
2023/10/12 02:27:54;;;;;;;;;;;;;;;;;;6083436;23;20377;-86
2023/10/12 02:30:28;;;;;;;;;;;;;;;;;;6088184;23;20262;-86
2023/10/12 02:33:07;;;;;;;;;;;;;;;;;;6081284;23;19948;-86
2023/10/12 02:35:44;;;;;;;;;;;;;;;;;;6085713;23;19944;-86
2023/10/12 02:38:28;;;;;;;;;;;;;;;;;;6146884;23;19920;-86
2023/10/12 02:40:58;;;;;;;;;;;;;;;;;;6143137;23;19924;-86
2023/10/12 02:43:28;;;;;;;;;;;;;;;;;;6145477;23;20011;-86
2023/10/12 02:46:03;;;;;;;;;;;;;;;;;;6143083;23;20397;-86
2023/10/12 02:48:39;;;;;;;;;;;;;;;;;;6143481;23;20428;-86
2023/10/12 02:51:14;;;;;;;;;;;;;;;;;;6172852;23;19969;-86
2023/10/12 02:53:46;;;;;;;;;;;;;;;;;;6170349;23;19945;-86
2023/10/12 02:56:24;;;;;;;;;;;;;;;;;;6168695;23;19959;-86
2023/10/12 02:59:08;;;;;;;;;;;;;;;;;;6170481;23;19920;-86
2023/10/12 03:01:38;;;;;;;;;;;;;;;;;;6170922;23;19971;-86
2023/10/12 03:04:10;;;;;;;;;;;;;;;;;;6146571;23;19927;-86
2023/10/12 03:06:41;;;;;;;;;;;;;;;;;;6142041;23;19923;-86
2023/10/12 03:09:14;;;;;;;;;;;;;;;;;;6145824;23;19987;-86
2023/10/12 03:11:42;;;;;;;;;;;;;;;;;;6141666;23;19920;-85
2023/10/12 03:14:16;;;;;;;;;;;;;;;;;;6144769;23;19924;-86
2023/10/12 03:17:03;;;;;;;;;;;;;;;;;;6145455;23;19920;-85
2023/10/12 03:19:36;;;;;;;;;;;;;;;;;;6145985;23;19920;-86
2023/10/12 03:22:47;;;;;;;;;;;;;;;;;;6144817;23;19920;-86
2023/10/12 03:25:02;;;;;;;;;;;;;;;;;;6135394;23;20131;-85
2023/10/12 03:27:40;;;;;;;;;;;;;;;;;;6145884;23;19924;-86
2023/10/12 03:30:17;;;;;;;;;;;;;;;;;;6149619;23;20314;-86
2023/10/12 03:32:45;;;;;;;;;;;;;;;;;;6147196;23;19982;-86
2023/10/12 03:35:26;;;;;;;;;;;;;;;;;;6148493;23;19924;-85
2023/10/12 03:38:00;;;;;;;;;;;;;;;;;;6145882;23;19923;-86
2023/10/12 03:40:50;;;;;;;;;;;;;;;;;;6144375;23;20012;-86
2023/10/12 03:43:27;;;;;;;;;;;;;;;;;;6148371;23;19924;-85
2023/10/12 03:46:17;;;;;;;;;;;;;;;;;;6145696;23;19994;-86
2023/10/12 03:51:44;;;;;;;;;;;;;;;;;;6145452;23;19952;-86
2023/10/12 03:57:26;;;;;;;;;;;;;;;;;;6125568;23;19954;-85
2023/10/12 04:03:06;;;;;;;;;;;;;;;;;;6144450;23;19963;-85
2023/10/12 04:05:56;;;;;;;;;;;;;;;;;;6168861;23;19919;-86
2023/10/12 04:11:47;;;;;;;;;;;;;;;;;;6174208;23;19917;-85
2023/10/12 04:17:09;;;;;;;;;;;;;;;;;;6171199;23;19920;-85
2023/10/12 04:19:59;;;;;;;;;;;;;;;;;;6144133;23;19974;-86
2023/10/12 04:22:35;;;;;;;;;;;;;;;;;;6146597;23;19979;-85
2023/10/12 04:25:12;;;;;;;;;;;;;;;;;;6146166;23;19958;-85
2023/10/12 04:27:50;;;;;;;;;;;;;;;;;;6142718;23;19951;-85
2023/10/12 04:33:13;;;;;;;;;;;;;;;;;;6138547;23;19924;-85
2023/10/12 04:36:01;;;;;;;;;;;;;;;;;;6168867;23;20463;-86
2023/10/12 04:38:56;;;;;;;;;;;;;;;;;;6143356;23;19927;-86
2023/10/12 04:47:15;;;;;;;;;;;;;;;;;;6171876;23;19927;-86
2023/10/12 04:49:54;;;;;;;;;;;;;;;;;;6145398;23;19924;-85
2023/10/12 04:53:06;;;;;;;;;;;;;;;;;;6143912;23;20328;-86
2023/10/12 04:55:23;;;;;;;;;;;;;;;;;;6171736;23;20353;-86
2023/10/12 04:57:59;;;;;;;;;;;;;;;;;;6166584;23;19926;-86
2023/10/12 05:00:47;;;;;;;;;;;;;;;;;;6172757;23;20642;-86
2023/10/12 05:03:25;;;;;;;;;;;;;;;;;;6170918;23;19916;-85
2023/10/12 05:06:25;;;;;;;;;;;;;;;;;;6167714;23;19920;-85
2023/10/12 05:08:46;;;;;;;;;;;;;;;;;;6166561;23;19921;-86
2023/10/12 05:11:16;;;;;;;;;;;;;;;;;;6175028;23;19923;-86
2023/10/12 05:13:43;;;;;;;;;;;;;;;;;;6146284;23;20824;-86
2023/10/12 05:16:14;;;;;;;;;;;;;;;;;;6174139;23;20298;-85
2023/10/12 05:18:50;;;;;;;;;;;;;;;;;;6171871;23;19921;-85
2023/10/12 05:21:16;;;;;;;;;;;;;;;;;;6173046;23;19995;-86
2023/10/12 05:23:43;;;;;;;;;;;;;;;;;;6143194;23;19956;-86
2023/10/12 05:26:10;;;;;;;;;;;;;;;;;;6147782;23;20341;-86
2023/10/12 05:28:47;;;;;;;;;;;;;;;;;;6143042;23;19924;-86
2023/10/12 05:31:14;;;;;;;;;;;;;;;;;;6150298;23;19952;-85
2023/10/12 05:33:43;;;;;;;;;;;;;;;;;;6138468;23;20269;-86
2023/10/12 05:36:10;;;;;;;;;;;;;;;;;;6148834;23;19955;-86
2023/10/12 05:38:37;;;;;;;;;;;;;;;;;;6143431;23;19920;-86
2023/10/12 05:41:05;;;;;;;;;;;;;;;;;;6169463;23;19935;-86
2023/10/12 05:43:36;;;;;;;;;;;;;;;;;;6144885;23;19920;-86
2023/10/12 05:46:15;;;;;;;;;;;;;;;;;;6144288;23;19928;-86
2023/10/12 05:48:51;;;;;;;;;;;;;;;;;;6172027;23;19916;-86
2023/10/12 05:51:27;;;;;;;;;;;;;;;;;;6142452;23;20387;-86
2023/10/12 05:54:07;;;;;;;;;;;;;;;;;;6165935;23;19935;-86
2023/10/12 05:57:17;;;;;;;;;;;;;;;;;;6171988;23;20332;-86
2023/10/12 05:59:45;;;;;;;;;;;;;;;;;;6143648;23;19998;-86
2023/10/12 06:02:13;;;;;;;;;;;;;;;;;;6143044;23;19931;-86
2023/10/12 06:04:44;;;;;;;;;;;;;;;;;;6141272;23;19981;-86
2023/10/12 06:07:12;;;;;;;;;;;;;;;;;;6145275;23;19955;-86
2023/10/12 06:09:53;;;;;;;;;;;;;;;;;;6168255;23;19924;-87
2023/10/12 06:12:21;;;;;;;;;;;;;;;;;;6144529;23;20380;-87
2023/10/12 06:14:53;;;;;;;;;;;;;;;;;;6167625;23;19934;-86
2023/10/12 06:17:30;;;;;;;;;;;;;;;;;;6143916;23;19920;-86
2023/10/12 06:19:58;;;;;;;;;;;;;;;;;;6143157;23;19922;-86
2023/10/12 06:22:32;;;;;;;;;;;;;;;;;;6142987;23;20556;-86
2023/10/12 06:25:08;;;;;;;;;;;;;;;;;;6170010;23;20330;-87
2023/10/12 06:27:42;;;;;;;;;;;;;;;;;;6141597;23;19952;-87
2023/10/12 06:30:18;;;;;;;;;;;;;;;;;;6146384;23;19924;-87
2023/10/12 06:32:48;;;;;;;;;;;;;;;;;;6143550;23;19991;-87
2023/10/12 06:40:37;;;;;;;;;;;;;;;;;;6144933;23;19932;-87
2023/10/12 06:45:51;;;;;;;;;;;;;;;;;;6143346;23;19924;-87
2023/10/12 06:49:03;;;;;;;;;;;;;;;;;;6146444;23;19924;-87
2023/10/12 06:51:16;;;;;;;;;;;;;;;;;;6167311;23;20292;-87
2023/10/12 06:53:51;;;;;;;;;;;;;;;;;;6146319;23;19920;-87
2023/10/12 07:04:53;;;;;;;;;;;;;;;;;;6144561;23;19954;-86
2023/10/12 07:07:43;;;;;;;;;;;;;;;;;;6171265;23;19914;-86
2023/10/12 07:12:41;;;;;;;;;;;;;;;;;;6145103;23;19926;-86
2023/10/12 07:15:11;;;;;;;;;;;;;;;;;;6148282;23;19991;-86
2023/10/12 07:17:48;;;;;;;;;;;;;;;;;;6171042;23;19920;-87
2023/10/12 07:21:06;;;;;;;;;;;;;;;;;;6146099;23;20353;-86
2023/10/12 07:23:10;;;;;;;;;;;;;;;;;;6137599;23;19990;-86
2023/10/12 07:25:37;;;;;;;;;;;;;;;;;;6170376;23;19920;-87
2023/10/12 07:28:05;;;;;;;;;;;;;;;;;;6172560;23;19916;-86
2023/10/12 07:30:42;;;;;;;;;;;;;;;;;;6147850;23;20632;-87
2023/10/12 07:33:22;;;;;;;;;;;;;;;;;;6146567;23;19963;-86
2023/10/12 07:35:58;;;;;;;;;;;;;;;;;;6144874;23;20341;-87
2023/10/12 07:39:15;;;;;;;;;;;;;;;;;;6147308;23;20249;-87
2023/10/12 07:41:33;;;;;;;;;;;;;;;;;;6171230;23;19925;-86
2023/10/12 07:44:09;;;;;;;;;;;;;;;;;;6145706;23;20401;-86
2023/10/12 07:46:49;;;;;;;;;;;;;;;;;;6142208;23;19920;-86
2023/10/12 07:49:36;;;;;;;;;;;;;;;;;;6148802;23;20388;-86
2023/10/12 07:57:18;;;;;;;;;;;;;;;;;;6143389;23;19939;-87
2023/10/12 08:00:15;;;;;;;;;;;;;;;;;;6142933;23;19920;-87
2023/10/12 08:13:27;;;;;;;;;;;;;;;;;;6146136;23;19974;-86
2023/10/12 08:16:04;;;;;;;;;;;;;;;;;;6146072;23;19924;-86
2023/10/12 08:26:57;;;;;;;;;;;;;;;;;;6144404;23;19947;-86
2023/10/12 08:32:04;;;;;;;;;;;;;;;;;;6171518;23;20874;-86
2023/10/12 08:37:19;;;;;;;;;;;;;;;;;;6148427;23;20377;-86
2023/10/12 08:45:09;;;;;;;;;;;;;;;;;;6174379;23;19926;-86
2023/10/12 08:50:08;;;;;;;;;;;;;;;;;;6174680;23;20604;-86
2023/10/12 08:52:38;;;;;;;;;;;;;;;;;;6147038;23;19920;-86
2023/10/12 08:55:24;;;;;;;;;;;;;;;;;;6170838;23;19920;-86
2023/10/12 08:58:01;;;;;;;;;;;;;;;;;;6144403;23;19958;-86
2023/10/12 09:00:42;;;;;;;;;;;;;;;;;;6171795;23;20360;-86
2023/10/12 09:05:54;;;;;;;;;;;;;;;;;;6144417;23;19927;-85
2023/10/12 09:13:38;;;;;;;;;;;;;;;;;;6142758;23;19924;-86
2023/10/12 09:16:04;;;;;;;;;;;;;;;;;;6148649;23;20211;-86
2023/10/12 09:18:49;;;;;;;;;;;;;;;;;;6168762;23;19967;-86
2023/10/12 09:21:25;;;;;;;;;;;;;;;;;;6147810;23;19927;-86
2023/10/12 09:27:01;;;;;;;;;;;;;;;;;;6144849;23;19920;-86
2023/10/12 09:29:42;;;;;;;;;;;;;;;;;;6174045;23;19927;-85
2023/10/12 09:32:24;;;;;;;;;;;;;;;;;;6170433;23;20245;-86
2023/10/12 09:35:25;;;;;;;;;;;;;;;;;;6144947;23;20007;-86
2023/10/12 09:38:01;;;;;;;;;;;;;;;;;;6145234;23;19966;-86
2023/10/12 09:40:42;;;;;;;;;;;;;;;;;;6147329;23;20348;-86
2023/10/12 09:43:16;;;;;;;;;;;;;;;;;;6147190;23;19924;-86
2023/10/12 09:46:05;;;;;;;;;;;;;;;;;;6147773;23;19920;-86
2023/10/12 09:48:45;;;;;;;;;;;;;;;;;;6171917;23;19916;-86
2023/10/12 09:51:15;;;;;;;;;;;;;;;;;;6146631;23;20051;-86
2023/10/12 09:54:15;;;;;;;;;;;;;;;;;;6177889;23;19928;-86
2023/10/12 09:56:46;;;;;;;;;;;;;;;;;;6169576;23;19920;-86
2023/10/12 09:59:19;;;;;;;;;;;;;;;;;;6149417;23;20777;-86
2023/10/12 10:01:59;;;;;;;;;;;;;;;;;;6143742;23;19920;-86
2023/10/12 10:04:28;;;;;;;;;;;;;;;;;;6147971;23;19920;-86
2023/10/12 10:07:08;;;;;;;;;;;;;;;;;;6143711;23;19955;-86
2023/10/12 10:09:46;;;;;;;;;;;;;;;;;;6173612;23;19920;-86
2023/10/12 10:12:15;;;;;;;;;;;;;;;;;;6147689;23;19951;-86
2023/10/12 10:14:52;;;;;;;;;;;;;;;;;;6145894;23;20365;-86
2023/10/12 10:17:24;;;;;;;;;;;;;;;;;;6146727;23;20280;-86
2023/10/12 10:20:01;;;;;;;;;;;;;;;;;;6146857;23;19921;-86
2023/10/12 10:22:38;;;;;;;;;;;;;;;;;;6172087;23;19983;-86
2023/10/12 10:25:17;;;;;;;;;;;;;;;;;;6148101;23;19920;-86
2023/10/12 10:27:56;;;;;;;;;;;;;;;;;;6144964;23;19916;-86
2023/10/12 10:30:36;;;;;;;;;;;;;;;;;;6148889;23;19916;-86
2023/10/12 10:33:17;;;;;;;;;;;;;;;;;;6149374;23;19987;-86
2023/10/12 10:35:43;;;;;;;;;;;;;;;;;;6145668;23;20257;-86
2023/10/12 10:38:11;;;;;;;;;;;;;;;;;;6148912;23;19924;-86
2023/10/12 10:40:45;;;;;;;;;;;;;;;;;;6147649;23;19924;-86
2023/10/12 10:43:22;;;;;;;;;;;;;;;;;;6176177;23;19927;-86
2023/10/12 10:45:57;;;;;;;;;;;;;;;;;;6173307;23;19966;-86
2023/10/12 10:48:24;;;;;;;;;;;;;;;;;;6150255;23;19921;-86
2023/10/12 10:50:51;;;;;;;;;;;;;;;;;;6170905;23;19916;-86
2023/10/12 10:53:18;;;;;;;;;;;;;;;;;;6177291;23;20008;-86
2023/10/12 10:55:47;;;;;;;;;;;;;;;;;;6173360;23;19924;-86
2023/10/12 10:58:14;;;;;;;;;;;;;;;;;;6175000;23;19916;-86
2023/10/12 11:00:45;;;;;;;;;;;;;;;;;;6174703;23;20253;-86
2023/10/12 11:03:13;;;;;;;;;;;;;;;;;;6147619;23;19920;-86
2023/10/12 11:05:40;;;;;;;;;;;;;;;;;;6172688;23;19917;-86
2023/10/12 11:08:53;;;;;;;;;;;;;;;;;;6146305;23;19916;-86
2023/10/12 11:13:44;;;;;;;;;;;;;;;;;;6144358;23;19924;-86
2023/10/12 11:16:30;;;;;;;;;;;;;;;;;;6148845;23;19927;-86
2023/10/12 11:18:57;;;;;;;;;;;;;;;;;;6145128;23;19979;-86
2023/10/12 11:21:25;;;;;;;;;;;;;;;;;;6148769;23;19917;-86
2023/10/12 11:23:53;;;;;;;;;;;;;;;;;;6142582;23;19926;-86
2023/10/12 11:26:21;;;;;;;;;;;;;;;;;;6147901;23;19923;-86
2023/10/12 11:28:48;;;;;;;;;;;;;;;;;;6146863;23;19927;-86
2023/10/12 11:31:30;;;;;;;;;;;;;;;;;;6145605;23;19920;-86
2023/10/12 11:33:58;;;;;;;;;;;;;;;;;;6144426;23;19924;-85
2023/10/12 11:36:25;;;;;;;;;;;;;;;;;;6149043;23;19916;-86
2023/10/12 11:39:21;;;;;;;;;;;;;;;;;;6149363;23;19924;-86
2023/10/12 11:41:57;;;;;;;;;;;;;;;;;;6145561;23;19924;-86
2023/10/12 11:44:24;;;;;;;;;;;;;;;;;;6173702;23;19927;-86
2023/10/12 11:46:59;;;;;;;;;;;;;;;;;;6144509;23;19920;-86
2023/10/12 11:49:32;;;;;;;;;;;;;;;;;;6147062;23;19925;-86
2023/10/12 11:52:13;;;;;;;;;;;;;;;;;;6172264;23;20361;-86
2023/10/12 11:54:46;;;;;;;;;;;;;;;;;;6167653;23;19924;-86
2023/10/12 11:57:14;;;;;;;;;;;;;;;;;;6171640;23;19970;-86
2023/10/12 11:59:44;;;;;;;;;;;;;;;;;;6171885;23;19994;-86
2023/10/12 12:02:16;;;;;;;;;;;;;;;;;;6146695;23;19920;-85
2023/10/12 12:04:44;;;;;;;;;;;;;;;;;;6168472;23;19983;-86
2023/10/12 12:07:13;;;;;;;;;;;;;;;;;;6149081;23;20341;-86
2023/10/12 12:09:40;;;;;;;;;;;;;;;;;;6168276;23;19920;-85
2023/10/12 12:12:16;;;;;;;;;;;;;;;;;;6145274;23;19928;-85
2023/10/12 12:14:46;;;;;;;;;;;;;;;;;;6146335;23;19924;-86
2023/10/12 12:17:15;;;;;;;;;;;;;;;;;;6136882;23;19978;-86
2023/10/12 12:19:45;;;;;;;;;;;;;;;;;;6143057;23;19921;-86
2023/10/12 12:22:15;;;;;;;;;;;;;;;;;;6141379;23;20261;-86
2023/10/12 12:24:57;;;;;;;;;;;;;;;;;;6138104;23;20311;-86
2023/10/12 12:27:39;;;;;;;;;;;;;;;;;;6141431;23;19926;-86
2023/10/12 12:30:08;;;;;;;;;;;;;;;;;;6172389;23;19920;-86
2023/10/12 12:32:44;;;;;;;;;;;;;;;;;;6139370;23;19920;-86
2023/10/12 12:35:11;;;;;;;;;;;;;;;;;;6141151;23;19924;-86
2023/10/12 12:37:39;;;;;;;;;;;;;;;;;;6166382;23;21164;-86
2023/10/12 12:43:07;;;;;;;;;;;;;;;;;;6146086;23;19920;-86
2023/10/12 12:45:35;;;;;;;;;;;;;;;;;;6141632;23;19982;-86
2023/10/12 12:48:08;;;;;;;;;;;;;;;;;;6167590;23;19920;-86
2023/10/12 12:50:34;;;;;;;;;;;;;;;;;;6144395;23;19927;-86
2023/10/12 12:56:15;;;;;;;;;;;;;;;;;;;;;
2023/10/12 12:59:00;;;;;;;;;;;;;;;;;;6162263;23;19920;-86
2023/10/12 13:01:45;;;;;;;;;;;;;;;;;;6161487;23;19920;-86
2023/10/12 13:04:26;;;;;;;;;;;;;;;;;;6166114;23;19920;-86
2023/10/12 13:07:14;;;;;;;;;;;;;;;;;;6137359;23;19931;-85
2023/10/12 13:09:48;;;;;;;;;;;;;;;;;;6164963;23;19974;-86
2023/10/12 13:12:31;;;;;;;;;;;;;;;;;;6169685;23;20472;-86
2023/10/12 13:15:07;;;;;;;;;;;;;;;;;;6140461;23;20402;-85
2023/10/12 13:17:47;;;;;;;;;;;;;;;;;;6109040;23;19920;-86
2023/10/12 13:20:29;;;;;;;;;;;;;;;;;;6110870;23;19921;-86
2023/10/12 13:23:17;;;;;;;;;;;;;;;;;;6109004;23;19944;-86
2023/10/12 13:29:15;;;;;;;;;;;;;;;;;;6086202;23;20346;-86
2023/10/12 13:31:43;;;;;;;;;;;;;;;;;;6106354;23;19960;-86
2023/10/12 13:34:10;;;;;;;;;;;;;;;;;;6106561;23;19925;-86
2023/10/12 13:36:39;;;;;;;;;;;;;;;;;;6078974;23;19960;-86
2023/10/12 13:39:11;;;;;;;;;;;;;;;;;;6106416;23;19920;-86
2023/10/12 13:41:38;;;;;;;;;;;;;;;;;;6103057;23;19971;-86
2023/10/12 13:44:05;;;;;;;;;;;;;;;;;;6082005;23;19950;-85
2023/10/12 13:46:45;;;;;;;;;;;;;;;;;;6104442;23;19928;-86
2023/10/12 13:55:24;;;;;;;;;;;;;;;;;;6075559;23;19925;-85
2023/10/12 13:58:14;;;;;;;;;;;;;;;;;;5984055;23;19934;-86
2023/10/12 14:01:13;;;;;;;;;;;;;;;;;;5993159;23;20415;-86
2023/10/12 14:04:28;;;;;;;;;;;;;;;;;;6040490;23;19997;-86
2023/10/12 14:09:58;;;;;;;;;;;;;;;;;;;;;
2023/10/12 14:12:47;;;;;;;;;;;;;;;;;;5957567;23;19922;-86
2023/10/12 14:15:14;;;;;;;;;;;;;;;;;;6045946;23;20319;-86
2023/10/12 14:17:54;;;;;;;;;;;;;;;;;;6041139;23;19921;-86
2023/10/12 14:23:13;;;;;;;;;;;;;;;;;;6046090;23;20065;-86
2023/10/12 14:25:46;;;;;;;;;;;;;;;;;;6043746;23;19992;-86
2023/10/12 14:28:36;;;;;;;;;;;;;;;;;;6022663;23;19965;-86
2023/10/12 14:31:20;;;;;;;;;;;;;;;;;;6033755;23;19973;-86
2023/10/12 14:33:55;;;;;;;;;;;;;;;;;;5999655;23;19958;-86
2023/10/12 14:36:26;;;;;;;;;;;;;;;;;;6148696;23;19917;-86
2023/10/12 14:39:01;;;;;;;;;;;;;;;;;;6150204;23;20233;-87
2023/10/12 14:41:48;;;;;;;;;;;;;;;;;;6171568;23;19924;-87
2023/10/12 14:44:19;;;;;;;;;;;;;;;;;;6170999;23;19987;-87
2023/10/12 16:31:27;;;;;;;;;;;;;;;;;;6192511;22;20290;-86
2023/10/12 16:34:18;;;;;;;;;;;;;;;;;;6084960;23;20406;-87
2023/10/12 16:43:28;;;;;;;;;;;;;;;;;;;;;
2023/10/12 16:46:25;;;;;;;;;;;;;;;;;;;;;
2023/10/12 17:01:54;;;;;;;;;;;;;;;;;;;;;
2023/10/12 19:27:22;;;;;;;;;;;;;;;;;;;;;
2023/10/12 19:33:11;;;;;;;;;;;;;;;;;;6166430;23;19946;-87
2023/10/12 19:45:34;;;;;;;;;;;;;;;;;;;;;
2023/10/12 19:51:50;;;;;;;;;;;;;;;;;;;;;
2023/10/12 19:55:08;;;;;;;;;;;;;;;;;;;;;
2023/10/12 20:13:33;;;;;;;;;;;;;;;;;;5880651;24;19968;-87
2023/10/12 20:22:42;;;;;;;;;;;;;;;;;;;;;
2023/10/12 22:06:54;;;;;;;;;;;;;;;;;;6148955;22;19924;-87
2023/10/12 22:12:27;;;;;;;;;;;;;;;;;;6083153;23;19921;-87
2023/10/12 22:15:13;;;;;;;;;;;;;;;;;;6104727;23;19921;-87
2023/10/12 22:17:50;;;;;;;;;;;;;;;;;;6105093;23;20016;-87
2023/10/12 22:20:27;;;;;;;;;;;;;;;;;;6087512;23;19940;-87
2023/10/12 22:22:54;;;;;;;;;;;;;;;;;;6085620;23;19971;-87
2023/10/12 22:25:27;;;;;;;;;;;;;;;;;;6111154;23;19920;-86
2023/10/12 22:27:53;;;;;;;;;;;;;;;;;;6106410;23;20376;-86
2023/10/12 22:30:20;;;;;;;;;;;;;;;;;;6085921;23;19921;-87
2023/10/12 22:32:46;;;;;;;;;;;;;;;;;;6100132;23;19923;-87
2023/10/12 22:35:14;;;;;;;;;;;;;;;;;;6173133;23;19995;-86
2023/10/12 22:37:45;;;;;;;;;;;;;;;;;;6194394;23;20313;-86
2023/10/12 22:40:31;;;;;;;;;;;;;;;;;;6176323;23;19919;-86
2023/10/12 22:43:01;;;;;;;;;;;;;;;;;;6176344;23;20313;-86
2023/10/12 22:45:28;;;;;;;;;;;;;;;;;;6177635;23;19966;-86
2023/10/12 22:47:57;;;;;;;;;;;;;;;;;;6173099;23;20325;-87
2023/10/12 22:50:24;;;;;;;;;;;;;;;;;;6176424;23;19930;-86
2023/10/12 22:52:51;;;;;;;;;;;;;;;;;;6174039;23;20003;-87
2023/10/12 22:55:22;;;;;;;;;;;;;;;;;;6203628;23;20070;-87
2023/10/12 22:57:49;;;;;;;;;;;;;;;;;;6173636;23;19920;-87
2023/10/12 23:00:25;;;;;;;;;;;;;;;;;;6152736;23;19927;-86
2023/10/12 23:02:55;;;;;;;;;;;;;;;;;;6201912;23;19997;-86
2023/10/12 23:05:25;;;;;;;;;;;;;;;;;;6176076;23;20234;-87
2023/10/12 23:07:54;;;;;;;;;;;;;;;;;;6147247;23;19928;-87
2023/10/12 23:10:25;;;;;;;;;;;;;;;;;;6174330;23;19934;-86
2023/10/12 23:12:54;;;;;;;;;;;;;;;;;;6195873;23;19932;-86
2023/10/12 23:15:26;;;;;;;;;;;;;;;;;;6175639;23;19920;-86
2023/10/12 23:18:38;;;;;;;;;;;;;;;;;;6173663;23;19927;-86
2023/10/12 23:21:05;;;;;;;;;;;;;;;;;;6165112;23;19920;-86
2023/10/12 23:23:32;;;;;;;;;;;;;;;;;;6174375;23;19923;-86
2023/10/12 23:25:59;;;;;;;;;;;;;;;;;;6148581;23;19920;-86
2023/10/12 23:28:25;;;;;;;;;;;;;;;;;;6175848;23;19932;-86
2023/10/12 23:30:52;;;;;;;;;;;;;;;;;;6172207;23;20028;-86
2023/10/12 23:33:22;;;;;;;;;;;;;;;;;;6174817;23;20022;-86
2023/10/12 23:35:59;;;;;;;;;;;;;;;;;;6170403;23;20015;-86
2023/10/12 23:39:00;;;;;;;;;;;;;;;;;;6172200;23;19926;-86
2023/10/12 23:41:33;;;;;;;;;;;;;;;;;;6200066;23;19920;-86
2023/10/12 23:44:20;;;;;;;;;;;;;;;;;;6174670;23;19923;-86
2023/10/12 23:46:51;;;;;;;;;;;;;;;;;;6172502;23;19955;-86
2023/10/12 23:49:42;;;;;;;;;;;;;;;;;;6202006;23;19923;-87
2023/10/12 23:52:51;;;;;;;;;;;;;;;;;;6173164;23;19928;-86
2023/10/12 23:55:09;;;;;;;;;;;;;;;;;;6202407;23;19927;-87
2023/10/12 23:57:39;;;;;;;;;;;;;;;;;;6171269;23;19923;-87
